createdAt,value
2019-04-23T00:01:26.817Z,13.60
2019-04-23T00:03:38.873Z,13.60
2019-04-23T00:06:18.961Z,13.50
2019-04-23T00:08:50.216Z,13.50
2019-04-23T00:16:20.427Z,13.40
2019-04-23T00:18:46.124Z,13.40
2019-04-23T00:21:26.625Z,13.30
2019-04-23T00:24:07.550Z,13.30
2019-04-23T00:26:30.590Z,13.20
2019-04-23T00:29:03.635Z,13.20
2019-04-23T00:31:31.667Z,13.20
2019-04-23T00:33:57.714Z,13.20
2019-04-23T00:36:32.681Z,13.10
2019-04-23T00:38:57.211Z,13.10
2019-04-23T00:41:30.879Z,13.10
2019-04-23T00:44:02.012Z,13.00
2019-04-23T00:49:05.847Z,12.90
2019-04-23T00:51:34.680Z,12.90
2019-04-23T00:54:06.168Z,12.90
2019-04-23T01:01:42.758Z,12.90
2019-04-23T01:04:04.762Z,12.90
2019-04-23T01:06:39.120Z,12.90
2019-04-23T01:09:22.515Z,12.80
2019-04-23T01:11:38.922Z,12.80
2019-04-23T01:14:11.644Z,12.80
2019-04-23T01:16:38.046Z,12.70
2019-04-23T01:19:24.430Z,12.70
2019-04-23T01:21:35.054Z,12.70
2019-04-23T01:24:28.744Z,12.70
2019-04-23T01:27:39.039Z,12.60
2019-04-23T01:30:08.134Z,12.70
2019-04-23T01:32:34.859Z,12.70
2019-04-23T01:35:20.353Z,12.70
2019-04-23T01:37:30.544Z,12.60
2019-04-23T01:40:04.069Z,12.60
2019-04-23T01:42:44.974Z,12.60
2019-04-23T01:45:07.337Z,12.60
2019-04-23T01:47:39.012Z,12.60
2019-04-23T01:50:20.134Z,12.60
2019-04-23T01:52:38.036Z,12.50
2019-04-23T01:55:09.989Z,12.50
2019-04-23T01:57:37.538Z,12.50
2019-04-23T02:02:45.641Z,12.50
2019-04-23T02:05:20.827Z,12.50
2019-04-23T02:07:50.734Z,12.50
2019-04-23T02:10:20.532Z,12.50
2019-04-23T02:12:47.661Z,12.50
2019-04-23T02:15:18.331Z,12.50
2019-04-23T02:17:53.550Z,12.40
2019-04-23T02:20:23.851Z,12.40
2019-04-23T02:23:11.642Z,12.40
2019-04-23T02:25:44.060Z,12.40
2019-04-23T02:28:28.644Z,12.30
2019-04-23T02:41:03.723Z,12.20
2019-04-23T02:48:24.994Z,12.10
2019-04-23T02:53:37.651Z,12.00
2019-04-23T02:58:43.760Z,12.00
2019-04-23T03:11:07.374Z,12.00
2019-04-23T03:13:39.180Z,12.00
2019-04-23T03:16:34.368Z,12.00
2019-04-23T03:27:19.264Z,11.90
2019-04-23T03:29:49.506Z,11.90
2019-04-23T03:32:45.369Z,11.90
2019-04-23T03:40:00.174Z,11.90
2019-04-23T03:42:17.750Z,11.80
2019-04-23T03:44:58.778Z,11.80
2019-04-23T03:47:26.806Z,11.80
2019-04-23T03:50:04.888Z,11.80
2019-04-23T03:52:36.891Z,11.80
2019-04-23T03:54:44.555Z,11.80
2019-04-23T03:57:30.302Z,11.80
2019-04-23T03:59:55.033Z,11.70
2019-04-23T04:02:44.040Z,11.70
2019-04-23T04:04:49.805Z,11.70
2019-04-23T04:07:46.945Z,11.70
2019-04-23T04:09:51.684Z,11.70
2019-04-23T04:17:33.026Z,11.70
2019-04-23T04:22:46.584Z,11.70
2019-04-23T04:25:09.291Z,11.60
2019-04-23T04:27:45.858Z,11.60
2019-04-23T04:40:23.395Z,11.60
2019-04-23T04:42:42.202Z,11.60
2019-04-23T04:50:31.315Z,11.70
2019-04-23T04:55:21.470Z,11.80
2019-04-23T05:10:38.539Z,12.10
2019-04-23T05:13:03.943Z,12.20
2019-04-23T05:15:25.754Z,12.30
2019-04-23T05:20:53.314Z,12.40
2019-04-23T05:23:22.862Z,12.40
2019-04-23T05:25:49.981Z,12.50
2019-04-23T05:28:27.957Z,12.60
2019-04-23T05:30:51.582Z,12.60
2019-04-23T05:40:59.213Z,13.00
2019-04-23T05:43:21.762Z,13.00
2019-04-23T05:46:14.231Z,13.00
2019-04-23T05:48:23.541Z,13.00
2019-04-23T05:51:06.094Z,13.10
2019-04-23T05:53:26.983Z,13.10
2019-04-23T05:56:01.968Z,13.10
2019-04-23T05:58:32.989Z,13.20
2019-04-23T06:01:33.604Z,13.20
2019-04-23T06:03:49.119Z,13.20
2019-04-23T06:06:21.726Z,13.30
2019-04-23T06:08:53.341Z,13.30
2019-04-23T06:14:20.403Z,13.50
2019-04-23T06:16:55.259Z,13.60
2019-04-23T06:19:17.133Z,13.60
2019-04-23T06:22:04.448Z,13.60
2019-04-23T06:24:22.240Z,13.70
2019-04-23T06:26:45.600Z,13.70
2019-04-23T06:29:20.484Z,13.70
2019-04-23T06:31:48.775Z,13.70
2019-04-23T06:37:04.995Z,13.70
2019-04-23T06:39:15.947Z,13.70
2019-04-23T06:41:49.908Z,13.70
2019-04-23T06:44:31.892Z,13.70
2019-04-23T06:47:29.368Z,13.80
2019-04-23T06:49:50.951Z,13.80
2019-04-23T06:52:21.781Z,13.90
2019-04-23T06:57:22.083Z,14.00
2019-04-23T06:59:54.730Z,14.10
2019-04-23T07:02:30.619Z,14.20
2019-04-23T07:07:42.535Z,14.40
2019-04-23T07:09:57.927Z,14.50
2019-04-23T07:12:29.757Z,14.60
2019-04-23T07:15:11.378Z,14.70
2019-04-23T07:17:24.995Z,14.80
2019-04-23T07:20:01.219Z,14.80
2019-04-23T07:22:29.021Z,14.90
2019-04-23T07:25:08.167Z,14.90
2019-04-23T07:27:34.663Z,15.00
2019-04-23T07:30:11.627Z,15.00
2019-04-23T07:32:37.723Z,15.10
2019-04-23T07:37:43.214Z,15.10
2019-04-23T07:42:59.967Z,15.20
2019-04-23T07:45:31.847Z,15.30
2019-04-23T07:53:22.953Z,15.60
2019-04-23T08:03:21.055Z,16.30
2019-04-23T08:05:52.397Z,16.40
2019-04-23T08:08:16.858Z,16.50
2019-04-23T08:13:53.268Z,16.80
2019-04-23T08:16:23.284Z,16.90
2019-04-23T08:18:49.811Z,17.00
2019-04-23T08:21:15.109Z,17.00
2019-04-23T08:26:55.143Z,17.20
2019-04-23T08:29:26.887Z,17.30
2019-04-23T08:32:06.949Z,17.40
2019-04-23T08:34:40.131Z,17.40
2019-04-23T08:39:38.614Z,17.60
2019-04-23T08:42:28.709Z,17.70
2019-04-23T08:48:07.483Z,18.00
2019-04-23T08:50:35.882Z,18.10
2019-04-23T08:53:17.816Z,18.20
2019-04-23T08:55:38.774Z,18.30
2019-04-23T08:58:06.023Z,18.50
2019-04-23T09:00:45.609Z,18.60
2019-04-23T09:03:25.129Z,18.60
2019-04-23T09:05:46.795Z,18.70
2019-04-23T09:08:15.008Z,18.80
2019-04-23T09:10:47.901Z,18.80
2019-04-23T09:13:40.178Z,18.90
2019-04-23T09:18:17.961Z,18.90
2019-04-23T09:20:46.004Z,18.90
2019-04-23T09:23:20.573Z,18.90
2019-04-23T09:25:54.183Z,19.00
2019-04-23T09:28:30.550Z,19.00
2019-04-23T09:30:57.816Z,19.10
2019-04-23T09:33:39.692Z,19.10
2019-04-23T09:36:29.524Z,19.20
2019-04-23T09:39:12.786Z,19.20
2019-04-23T09:42:05.522Z,19.20
2019-04-23T09:45:00.114Z,19.30
2019-04-23T09:47:45.826Z,19.40
2019-04-23T09:50:18.906Z,19.50
2019-04-23T09:55:24.501Z,19.80
2019-04-23T09:57:50.259Z,20.00
2019-04-23T10:00:25.464Z,20.10
2019-04-23T10:02:33.924Z,20.20
2019-04-23T10:05:04.987Z,20.20
2019-04-23T10:07:37.642Z,20.20
2019-04-23T10:09:53.442Z,20.20
2019-04-23T10:12:24.124Z,20.20
2019-04-23T10:15:04.859Z,20.20
2019-04-23T10:17:24.462Z,20.20
2019-04-23T10:19:55.058Z,20.10
2019-04-23T10:22:25.124Z,20.10
2019-04-23T10:24:55.295Z,20.10
2019-04-23T10:27:25.180Z,20.00
2019-04-23T10:29:56.069Z,20.10
2019-04-23T10:32:27.243Z,20.10
2019-04-23T10:35:10.329Z,20.20
2019-04-23T10:37:39.643Z,20.20
2019-04-23T10:40:03.563Z,20.20
2019-04-23T10:42:31.993Z,20.30
2019-04-23T10:45:42.440Z,20.40
2019-04-23T10:49:18.071Z,20.40
2019-04-23T10:54:19.585Z,20.60
2019-04-23T10:56:42.526Z,20.70
2019-04-23T10:59:06.165Z,20.80
2019-04-23T11:01:43.498Z,20.80
2019-04-23T11:04:45.075Z,20.90
2019-04-23T11:06:47.306Z,20.90
2019-04-23T11:09:27.663Z,20.90
2019-04-23T11:12:01.143Z,21.00
2019-04-23T11:14:34.324Z,21.20
2019-04-23T11:19:32.632Z,21.30
2019-04-23T11:22:07.963Z,21.40
2019-04-23T11:24:39.873Z,21.40
2019-04-23T11:26:56.936Z,21.40
2019-04-23T11:29:34.270Z,21.50
2019-04-23T11:32:19.383Z,21.60
2019-04-23T11:35:01.073Z,21.80
2019-04-23T11:37:15.747Z,22.00
2019-04-23T11:39:58.083Z,22.10
2019-04-23T11:42:14.645Z,22.20
2019-04-23T11:47:14.200Z,22.50
2019-04-23T11:57:29.813Z,22.80
2019-04-23T11:59:47.310Z,22.90
2019-04-23T12:02:23.244Z,23.00
2019-04-23T12:05:11.659Z,23.20
2019-04-23T12:07:53.849Z,23.30
2019-04-23T12:10:40.751Z,23.40
2019-04-23T12:13:03.222Z,23.50
2019-04-23T12:15:32.654Z,23.60
2019-04-23T12:18:01.053Z,23.60
2019-04-23T12:20:38.063Z,23.70
2019-04-23T12:23:12.214Z,23.70
2019-04-23T12:25:58.253Z,23.60
2019-04-23T12:28:06.673Z,23.60
2019-04-23T12:33:15.144Z,23.60
2019-04-23T12:35:39.289Z,23.50
2019-04-23T12:38:25.407Z,23.40
2019-04-23T12:40:52.964Z,23.30
2019-04-23T12:43:14.571Z,23.30
2019-04-23T12:45:44.259Z,23.40
2019-04-23T12:50:58.655Z,23.60
2019-04-23T12:58:26.774Z,23.60
2019-04-23T13:00:48.464Z,23.60
2019-04-23T13:03:25.430Z,23.60
2019-04-23T13:05:43.513Z,23.60
2019-04-23T13:10:49.631Z,23.70
2019-04-23T13:13:31.485Z,23.70
2019-04-23T13:15:51.934Z,23.70
2019-04-23T13:18:31.487Z,23.80
2019-04-23T13:21:01.555Z,23.70
2019-04-23T13:23:31.098Z,23.60
2019-04-23T13:25:59.820Z,23.60
2019-04-23T13:28:38.751Z,23.60
2019-04-23T13:38:41.738Z,23.70
2019-04-23T13:41:17.344Z,23.70
2019-04-23T13:43:48.442Z,23.70
2019-04-23T13:48:39.685Z,23.90
2019-04-23T13:51:22.629Z,24.00
2019-04-23T13:59:06.968Z,24.10
2019-04-23T14:01:25.413Z,24.20
2019-04-23T14:03:45.228Z,24.30
2019-04-23T14:11:24.841Z,24.50
2019-04-23T14:21:26.975Z,24.50
2019-04-23T14:28:53.402Z,24.70
2019-04-23T14:31:24.023Z,24.70
2019-04-23T14:40:12.249Z,25.00
2019-04-23T14:41:26.106Z,24.90
2019-04-23T14:54:35.403Z,25.10
2019-04-23T14:56:56.829Z,25.20
2019-04-23T14:59:15.040Z,25.20
2019-04-23T15:01:58.165Z,25.10
2019-04-23T15:04:27.313Z,25.00
2019-04-23T15:09:28.039Z,24.80
2019-04-23T15:12:04.849Z,24.90
2019-04-23T15:14:38.010Z,25.00
2019-04-23T15:17:00.384Z,25.00
2019-04-23T15:19:58.136Z,25.00
2019-04-23T15:22:08.355Z,24.90
2019-04-23T15:29:27.967Z,24.90
2019-04-23T15:32:13.070Z,24.90
2019-04-23T15:34:36.832Z,25.00
2019-04-23T15:37:18.994Z,25.00
2019-04-23T15:39:47.638Z,25.00
2019-04-23T15:44:42.005Z,25.00
2019-04-23T15:47:23.096Z,25.00
2019-04-23T15:49:51.491Z,24.90
2019-04-23T15:52:39.380Z,24.90
2019-04-23T15:54:52.318Z,24.80
2019-04-23T15:57:28.400Z,24.80
2019-04-23T15:59:47.945Z,24.70
2019-04-23T16:01:51.122Z,24.60
2019-04-23T16:04:20.805Z,24.50
2019-04-23T16:06:51.794Z,24.40
2019-04-23T16:09:59.817Z,24.30
2019-04-23T16:12:20.388Z,24.20
2019-04-23T16:15:02.682Z,24.10
2019-04-23T16:22:39.739Z,23.90
2019-04-23T16:27:48.975Z,23.60
2019-04-23T16:35:43.362Z,23.30
2019-04-23T16:38:18.139Z,23.10
2019-04-23T16:43:08.646Z,23.00
2019-04-23T16:45:36.892Z,22.90
2019-04-23T16:48:23.977Z,22.80
2019-04-23T16:50:58.105Z,22.70
2019-04-23T16:53:19.802Z,22.60
2019-04-23T16:58:22.225Z,22.40
2019-04-23T17:01:05.933Z,22.30
2019-04-23T17:03:19.332Z,22.30
2019-04-23T17:05:54.586Z,22.20
2019-04-23T17:08:37.454Z,22.10
2019-04-23T17:10:53.670Z,22.00
2019-04-23T17:13:20.160Z,21.90
2019-04-23T17:18:29.445Z,21.90
2019-04-23T17:20:53.078Z,21.80
2019-04-23T17:23:31.681Z,21.70
2019-04-23T17:26:00.782Z,21.60
2019-04-23T17:28:21.721Z,21.60
2019-04-23T17:31:18.789Z,21.60
2019-04-23T17:33:35.604Z,21.60
2019-04-23T17:38:55.311Z,21.60
2019-04-23T17:44:12.324Z,21.40
2019-04-23T17:46:34.270Z,21.40
2019-04-23T17:49:04.855Z,21.30
2019-04-23T17:51:50.858Z,21.20
2019-04-23T17:54:12.080Z,21.10
2019-04-23T17:56:47.714Z,21.00
2019-04-23T17:59:15.896Z,21.00
2019-04-23T18:01:57.094Z,20.90
2019-04-23T18:09:25.515Z,20.70
2019-04-23T18:11:49.958Z,20.70
2019-04-23T18:14:11.224Z,20.60
2019-04-23T18:19:20.218Z,20.50
2019-04-23T18:22:24.517Z,20.40
2019-04-23T18:25:19.503Z,20.40
2019-04-23T18:27:48.279Z,20.30
2019-04-23T18:30:44.612Z,20.20
2019-04-23T18:34:00.165Z,20.20
2019-04-23T18:35:56.645Z,20.10
2019-04-23T18:41:06.198Z,19.90
2019-04-23T18:43:41.168Z,19.80
2019-04-23T18:56:11.342Z,19.60
2019-04-23T18:58:54.685Z,19.60
2019-04-23T19:01:14.013Z,19.50
2019-04-23T19:04:00.340Z,19.40
2019-04-23T19:06:37.715Z,19.40
2019-04-23T19:09:52.060Z,19.40
2019-04-23T19:15:04.511Z,19.30
2019-04-23T19:17:42.074Z,19.30
2019-04-23T19:19:49.959Z,19.20
2019-04-23T19:22:43.205Z,19.20
2019-04-23T19:29:58.223Z,19.10
2019-04-23T19:32:28.338Z,19.10
2019-04-23T19:34:49.215Z,19.00
2019-04-23T19:37:39.884Z,19.00
2019-04-23T19:39:53.322Z,19.00
2019-04-23T19:42:42.515Z,19.00
2019-04-23T19:44:54.405Z,18.90
2019-04-23T19:47:37.815Z,18.80
2019-04-23T19:49:57.046Z,18.80
2019-04-23T19:52:52.550Z,18.80
2019-04-23T19:55:12.078Z,18.70
2019-04-23T20:00:02.460Z,18.60
2019-04-23T20:02:56.746Z,18.60
2019-04-23T20:05:05.679Z,18.50
2019-04-23T20:07:47.398Z,18.50
2019-04-23T20:10:04.089Z,18.40
2019-04-23T20:12:42.881Z,18.40
2019-04-23T20:15:31.614Z,18.30
2019-04-23T20:20:08.783Z,18.20
2019-04-23T20:22:50.771Z,18.20
2019-04-23T20:25:38.681Z,18.20
2019-04-23T20:27:58.811Z,18.10
2019-04-23T20:30:41.236Z,18.10
2019-04-23T20:35:52.352Z,18.00
2019-04-23T20:40:45.395Z,18.00
2019-04-23T20:43:00.282Z,17.90
2019-04-23T20:45:56.899Z,17.90
2019-04-23T20:48:09.322Z,17.80
2019-04-23T20:50:39.680Z,17.80
2019-04-23T20:53:05.018Z,17.80
2019-04-23T20:55:58.446Z,17.80
2019-04-23T20:58:23.135Z,17.70
2019-04-23T21:01:18.846Z,17.70
2019-04-23T21:06:06.915Z,17.60
2019-04-23T21:11:35.125Z,17.60
2019-04-23T21:16:36.085Z,17.50
2019-04-23T21:18:57.145Z,17.50
2019-04-23T21:21:33.839Z,17.50
2019-04-23T21:26:35.603Z,17.40
2019-04-23T21:28:58.922Z,17.40
2019-04-23T21:31:41.334Z,17.40
2019-04-23T21:34:12.867Z,17.30
2019-04-23T21:36:46.355Z,17.30
2019-04-23T21:42:20.816Z,17.20
2019-04-23T21:44:46.896Z,17.20
2019-04-23T21:47:17.107Z,17.10
2019-04-23T21:50:08.444Z,17.10
2019-04-23T21:52:17.955Z,17.00
2019-04-23T21:54:49.191Z,17.00
2019-04-23T21:57:29.496Z,16.90
2019-04-23T21:59:56.251Z,16.90
2019-04-23T22:02:32.455Z,16.90
2019-04-23T22:05:01.131Z,16.80
2019-04-23T22:07:40.766Z,16.80
2019-04-23T22:09:57.214Z,16.80
2019-04-23T22:12:54.722Z,16.80
2019-04-23T22:14:57.843Z,16.70
2019-04-23T22:17:34.386Z,16.70
2019-04-23T22:22:42.020Z,16.60
2019-04-23T22:25:13.157Z,16.60
2019-04-23T22:27:39.653Z,16.60
2019-04-23T22:30:11.287Z,16.60
2019-04-23T22:35:07.582Z,16.50
2019-04-23T22:37:45.796Z,16.40
2019-04-23T22:40:04.740Z,16.40
2019-04-23T22:47:47.757Z,16.30
2019-04-23T22:50:11.197Z,16.40
2019-04-23T22:52:48.722Z,16.30
2019-04-23T22:57:58.710Z,16.20
2019-04-23T23:03:22.836Z,16.00
2019-04-23T23:08:16.661Z,15.90
2019-04-23T23:10:53.958Z,15.90
2019-04-23T23:13:20.575Z,15.80
2019-04-23T23:15:59.619Z,15.80
2019-04-23T23:18:19.549Z,15.80
2019-04-23T23:20:55.885Z,15.70
2019-04-23T23:23:18.013Z,15.70
2019-04-23T23:25:53.960Z,15.60
2019-04-23T23:31:05.239Z,15.60
2019-04-23T23:33:24.676Z,15.50
2019-04-23T23:36:00.094Z,15.50
2019-04-23T23:38:33.302Z,15.40
2019-04-23T23:41:03.667Z,15.40
2019-04-23T23:46:18.615Z,15.40
2019-04-23T23:48:28.068Z,15.40
2019-04-23T23:51:17.031Z,15.40
2019-04-23T23:53:42.845Z,15.30
2019-04-23T23:56:10.942Z,15.30
